Time;durP1;ratioP1;P1;durP2;ratioP2;P2;SDS_P1;SDS_P2;PMS_P1;PMS_P2;Temp;Humidity;BMP_temperature;BMP_pressure;BME280_temperature;BME280_humidity;BME280_pressure;Samples;Min_cycle;Max_cycle;Signal;HPM_P1;HPM_P2
2021/08/16 00:01:51;;;;;;;6.22;1.23;;;;;;;-145.71;100.00;60690.53;5013745;28;20049;-82
2021/08/16 00:04:17;;;;;;;3.45;1.23;;;;;;;-145.71;100.00;60690.53;5013146;28;20064;-82
2021/08/16 00:06:43;;;;;;;2.22;1.17;;;;;;;-145.71;100.00;60690.53;5012673;28;20030;-82
2021/08/16 00:09:09;;;;;;;3.47;1.33;;;;;;;-145.71;100.00;60690.53;5012543;28;20042;-82
2021/08/16 00:11:36;;;;;;;4.38;1.70;;;;;;;-145.71;100.00;60690.53;4994842;28;20064;-82
2021/08/16 00:14:02;;;;;;;3.97;1.25;;;;;;;-145.71;100.00;60690.53;5013787;28;20030;-82
2021/08/16 00:16:27;;;;;;;1.40;1.30;;;;;;;-145.71;100.00;60690.53;5018598;28;20026;-82
2021/08/16 00:18:53;;;;;;;2.50;1.23;;;;;;;-145.71;100.00;60690.53;4996714;28;20041;-82
2021/08/16 00:21:18;;;;;;;3.53;1.20;;;;;;;-145.71;100.00;60690.53;5013478;28;20119;-82
2021/08/16 00:23:44;;;;;;;1.88;1.30;;;;;;;-145.71;100.00;60690.53;4991170;28;20418;-82
2021/08/16 00:26:10;;;;;;;4.75;1.33;;;;;;;-145.71;100.00;60690.53;4993325;28;20386;-82
2021/08/16 00:28:36;;;;;;;3.00;1.40;;;;;;;-145.71;100.00;60690.53;4992920;28;20100;-82
2021/08/16 00:31:01;;;;;;;4.40;1.65;;;;;;;-145.71;100.00;60690.53;4992495;28;20130;-82
2021/08/16 00:33:26;;;;;;;3.85;1.30;;;;;;;-145.71;100.00;60690.53;4992541;28;20038;-81
2021/08/16 00:35:52;;;;;;;4.25;1.33;;;;;;;-145.71;100.00;60690.53;4990649;28;20402;-82
2021/08/16 00:38:17;;;;;;;2.28;1.50;;;;;;;-145.71;100.00;60690.53;4996225;28;20033;-82
2021/08/16 00:40:43;;;;;;;3.13;1.30;;;;;;;-145.71;100.00;60690.53;4997452;28;20084;-82
2021/08/16 00:43:08;;;;;;;3.05;1.60;;;;;;;-145.71;100.00;60690.53;4995124;28;20036;-82
2021/08/16 00:45:34;;;;;;;3.55;1.30;;;;;;;-145.71;100.00;60690.53;4994927;28;20034;-82
2021/08/16 00:47:59;;;;;;;3.42;1.65;;;;;;;-145.71;100.00;60690.53;4993466;28;20030;-82
2021/08/16 00:50:25;;;;;;;3.80;1.40;;;;;;;-145.71;100.00;60690.53;4992819;28;20030;-82
2021/08/16 00:52:50;;;;;;;2.85;1.40;;;;;;;-145.71;100.00;60690.53;4992830;28;20057;-81
2021/08/16 00:55:16;;;;;;;3.05;2.03;;;;;;;-145.71;100.00;60690.53;4992406;28;20032;-82
2021/08/16 00:57:41;;;;;;;2.35;1.50;;;;;;;-145.71;100.00;60690.53;4990596;28;20022;-82
2021/08/16 01:00:11;;;;;;;1.70;1.40;;;;;;;-145.71;100.00;60690.53;4993940;28;20347;-82
2021/08/16 01:02:41;;;;;;;1.30;1.20;;;;;;;-145.71;100.00;60690.53;4993189;28;20045;-82
2021/08/16 01:05:11;;;;;;;6.15;1.60;;;;;;;-145.71;100.00;60690.53;4992892;28;20030;-83
2021/08/16 01:07:37;;;;;;;3.88;2.22;;;;;;;-145.71;100.00;60690.53;4995879;28;20038;-82
2021/08/16 01:10:04;;;;;;;3.47;1.50;;;;;;;-145.71;100.00;60690.53;4993835;28;20035;-82
2021/08/16 01:12:31;;;;;;;2.97;1.40;;;;;;;-145.71;100.00;60690.53;4993186;28;20084;-82
2021/08/16 01:14:56;;;;;;;2.75;1.45;;;;;;;-145.71;100.00;60690.53;4991408;28;20061;-82
2021/08/16 01:17:22;;;;;;;4.97;1.70;;;;;;;-145.71;100.00;60690.53;4992327;28;20092;-82
2021/08/16 01:19:49;;;;;;;3.47;1.63;;;;;;;-145.71;100.00;60690.53;4990094;28;20034;-82
2021/08/16 01:22:14;;;;;;;2.83;2.15;;;;;;;-145.71;100.00;60690.53;4991094;28;20518;-82
2021/08/16 01:24:41;;;;;;;5.13;1.70;;;;;;;-145.71;100.00;60690.53;5004425;28;20120;-82
2021/08/16 01:27:11;;;;;;;3.80;1.70;;;;;;;-145.71;100.00;60690.53;5012542;28;20111;-82
2021/08/16 01:29:37;;;;;;;3.60;1.88;;;;;;;-145.71;100.00;60690.53;5015396;28;20053;-82
2021/08/16 01:32:03;;;;;;;5.25;1.88;;;;;;;-145.71;100.00;60690.53;4995793;28;20061;-82
2021/08/16 01:34:30;;;;;;;7.88;2.25;;;;;;;-145.71;100.00;60690.53;5012523;28;20029;-82
2021/08/16 01:36:56;;;;;;;5.28;1.63;;;;;;;-145.71;100.00;60690.53;5012323;28;20021;-82
2021/08/16 01:39:21;;;;;;;2.15;1.80;;;;;;;-145.71;100.00;60690.53;5011538;28;20057;-82
2021/08/16 01:41:48;;;;;;;5.25;1.77;;;;;;;-145.71;100.00;60690.53;5011533;28;20033;-82
2021/08/16 01:44:15;;;;;;;3.28;1.45;;;;;;;-145.71;100.00;60690.53;5012220;28;20076;-82
2021/08/16 01:46:42;;;;;;;3.00;1.63;;;;;;;-145.71;100.00;60690.53;5012173;28;20041;-82
2021/08/16 01:49:08;;;;;;;7.35;2.00;;;;;;;-145.71;100.00;60690.53;5013070;28;20461;-82
2021/08/16 01:51:34;;;;;;;1.73;1.60;;;;;;;-145.71;100.00;60690.53;5014815;28;20021;-83
2021/08/16 01:54:00;;;;;;;4.55;1.83;;;;;;;-145.71;100.00;60690.53;5013697;28;20613;-82
2021/08/16 01:56:25;;;;;;;6.75;1.95;;;;;;;-145.71;100.00;60690.53;4995259;28;20121;-82
2021/08/16 01:58:50;;;;;;;6.10;2.00;;;;;;;-145.71;100.00;60690.53;5012961;28;20065;-82
2021/08/16 02:01:16;;;;;;;5.07;1.65;;;;;;;-145.71;100.00;60690.53;5012422;28;20363;-82
2021/08/16 02:03:41;;;;;;;4.68;1.52;;;;;;;-145.71;100.00;60690.53;5012121;28;20037;-82
2021/08/16 02:06:06;;;;;;;6.60;1.75;;;;;;;-145.71;100.00;60690.53;5013147;28;20483;-82
2021/08/16 02:08:31;;;;;;;3.30;1.73;;;;;;;-145.71;100.00;60690.53;5011942;28;20040;-82
2021/08/16 02:10:57;;;;;;;6.38;1.77;;;;;;;-145.71;100.00;60690.53;5011548;28;20030;-82
2021/08/16 02:13:22;;;;;;;4.03;1.95;;;;;;;-145.71;100.00;60690.53;4993404;28;20033;-82
2021/08/16 02:15:48;;;;;;;3.97;2.00;;;;;;;-145.71;100.00;60690.53;5011561;28;20029;-82
2021/08/16 02:18:13;;;;;;;5.18;2.47;;;;;;;-145.71;100.00;60690.53;4993476;28;20088;-82
2021/08/16 02:20:38;;;;;;;5.25;1.65;;;;;;;-145.71;100.00;60690.53;5014943;28;20084;-82
2021/08/16 02:23:04;;;;;;;2.72;1.33;;;;;;;-145.71;100.00;60690.53;4996950;28;20021;-83
2021/08/16 02:25:29;;;;;;;3.85;1.48;;;;;;;-145.71;100.00;60690.53;5013178;28;20068;-82
2021/08/16 02:27:55;;;;;;;3.33;1.80;;;;;;;-145.71;100.00;60690.53;4995132;28;20052;-82
2021/08/16 02:30:20;;;;;;;7.78;1.80;;;;;;;-145.71;100.00;60690.53;5011451;28;20179;-83
2021/08/16 02:32:46;;;;;;;5.20;1.92;;;;;;;-145.71;100.00;60690.53;5011892;28;20033;-82
2021/08/16 02:35:12;;;;;;;4.95;1.95;;;;;;;-145.71;100.00;60690.53;4993135;28;20041;-82
2021/08/16 02:37:38;;;;;;;2.97;1.90;;;;;;;-145.71;100.00;60690.53;5010765;28;20429;-82
2021/08/16 02:40:05;;;;;;;6.47;1.98;;;;;;;-145.71;100.00;60690.53;4992999;28;20055;-81
2021/08/16 02:42:30;;;;;;;4.30;2.17;;;;;;;-145.71;100.00;60690.53;5010741;28;20045;-82
2021/08/16 02:44:56;;;;;;;6.63;2.40;;;;;;;-145.71;100.00;60690.53;5011101;28;20030;-81
2021/08/16 02:47:22;;;;;;;6.43;2.20;;;;;;;-145.71;100.00;60690.53;5015639;28;20033;-82
2021/08/16 02:49:51;;;;;;;3.65;1.73;;;;;;;-145.71;100.00;60690.53;5018173;28;20531;-82
2021/08/16 02:52:19;;;;;;;6.22;2.53;;;;;;;-145.71;100.00;60690.53;4998853;28;20084;-83
2021/08/16 02:54:46;;;;;;;6.43;1.83;;;;;;;-145.71;100.00;60690.53;5015476;28;20037;-82
2021/08/16 02:57:12;;;;;;;5.50;2.15;;;;;;;-145.71;100.00;60690.53;4996974;28;20026;-82
2021/08/16 02:59:41;;;;;;;3.75;1.70;;;;;;;-145.71;100.00;60690.53;5014465;28;20026;-81
2021/08/16 03:02:08;;;;;;;5.45;1.70;;;;;;;-145.71;100.00;60690.53;4996187;28;20022;-81
2021/08/16 03:04:34;;;;;;;2.47;1.52;;;;;;;-145.71;100.00;60690.53;5013909;28;20021;-81
2021/08/16 03:07:00;;;;;;;4.32;1.60;;;;;;;-145.71;100.00;60690.53;4995743;28;20034;-82
2021/08/16 03:09:27;;;;;;;8.10;2.45;;;;;;;-145.71;100.00;60690.53;5017298;28;20029;-83
2021/08/16 03:11:53;;;;;;;4.22;1.70;;;;;;;-145.71;100.00;60690.53;4999315;28;20034;-83
2021/08/16 03:14:18;;;;;;;4.88;1.67;;;;;;;-145.71;100.00;60690.53;5017320;28;20120;-82
2021/08/16 03:16:43;;;;;;;4.22;1.95;;;;;;;-145.71;100.00;60690.53;5015437;28;20036;-82
2021/08/16 03:19:09;;;;;;;6.30;2.75;;;;;;;-145.71;100.00;60690.53;4996029;28;20033;-81
2021/08/16 03:21:34;;;;;;;3.05;1.85;;;;;;;-145.71;100.00;60690.53;5013468;28;20026;-82
2021/08/16 03:24:00;;;;;;;6.20;2.20;;;;;;;-145.71;100.00;60690.53;5013137;28;20383;-82
2021/08/16 03:26:25;;;;;;;4.93;1.75;;;;;;;-145.71;100.00;60690.53;5013564;28;20040;-82
2021/08/16 03:28:50;;;;;;;3.80;2.00;;;;;;;-145.71;100.00;60690.53;5013092;28;20474;-82
2021/08/16 03:31:16;;;;;;;3.42;2.10;;;;;;;-145.71;100.00;60690.53;5013296;28;20029;-82
2021/08/16 03:33:41;;;;;;;5.57;2.40;;;;;;;-145.71;100.00;60690.53;5013141;28;20022;-82
2021/08/16 03:36:06;;;;;;;6.57;2.60;;;;;;;-145.71;100.00;60690.53;5017281;28;20057;-83
2021/08/16 03:38:32;;;;;;;5.45;2.85;;;;;;;-145.71;100.00;60690.53;5014828;28;20112;-82
2021/08/16 03:40:57;;;;;;;4.32;2.40;;;;;;;-145.71;100.00;60690.53;5013527;28;20021;-82
2021/08/16 03:43:22;;;;;;;6.28;3.10;;;;;;;-145.71;100.00;60690.53;5013455;28;20114;-82
2021/08/16 03:45:48;;;;;;;4.00;2.22;;;;;;;-145.71;100.00;60690.53;5013302;28;20058;-82
2021/08/16 03:48:13;;;;;;;6.40;2.63;;;;;;;-145.71;100.00;60690.53;5012704;28;20398;-82
2021/08/16 03:50:39;;;;;;;7.10;2.58;;;;;;;-145.71;100.00;60690.53;5012890;28;20052;-82
2021/08/16 03:53:05;;;;;;;9.57;2.60;;;;;;;-145.71;100.00;60690.53;5012488;28;20451;-81
2021/08/16 03:55:31;;;;;;;6.03;2.45;;;;;;;-145.71;100.00;60690.53;4994734;28;20040;-82
2021/08/16 03:57:57;;;;;;;4.53;2.97;;;;;;;-145.71;100.00;60690.53;5011622;28;20045;-82
2021/08/16 04:00:22;;;;;;;4.78;2.55;;;;;;;-145.71;100.00;60690.53;5012719;28;20057;-82
2021/08/16 04:02:47;;;;;;;5.60;2.95;;;;;;;-145.71;100.00;60690.53;5015123;28;20080;-82
2021/08/16 04:05:13;;;;;;;5.47;2.70;;;;;;;-145.71;100.00;60690.53;5013272;28;20034;-83
2021/08/16 04:07:42;;;;;;;5.32;2.25;;;;;;;-145.71;100.00;60690.53;5015889;28;20160;-83
2021/08/16 04:10:08;;;;;;;6.50;3.70;;;;;;;-145.71;100.00;60690.53;5015024;28;20393;-82
2021/08/16 04:12:34;;;;;;;12.95;4.60;;;;;;;-145.71;100.00;60690.53;4996592;28;20069;-82
2021/08/16 04:14:59;;;;;;;7.53;3.65;;;;;;;-145.71;100.00;60690.53;4995803;28;20054;-82
2021/08/16 04:17:25;;;;;;;8.50;3.67;;;;;;;-145.71;100.00;60690.53;5013272;28;20077;-82
2021/08/16 04:19:50;;;;;;;5.32;2.45;;;;;;;-145.71;100.00;60690.53;5012871;28;20030;-82
2021/08/16 04:22:15;;;;;;;11.73;3.30;;;;;;;-145.71;100.00;60690.53;4994620;28;20033;-82
2021/08/16 04:24:40;;;;;;;8.63;3.40;;;;;;;-145.71;100.00;60690.53;4994118;28;20506;-83
2021/08/16 04:27:06;;;;;;;7.32;3.75;;;;;;;-145.71;100.00;60690.53;5013167;28;20010;-82
2021/08/16 04:29:31;;;;;;;7.35;4.00;;;;;;;-145.71;100.00;60690.53;4999136;28;20054;-83
2021/08/16 04:31:57;;;;;;;4.82;2.83;;;;;;;-145.71;100.00;60690.53;5020934;28;20021;-82
2021/08/16 04:34:23;;;;;;;8.48;3.83;;;;;;;-145.71;100.00;60690.53;5025427;28;20033;-82
2021/08/16 04:36:48;;;;;;;5.30;3.20;;;;;;;-145.71;100.00;60690.53;4992081;28;20036;-82
2021/08/16 04:39:14;;;;;;;3.22;2.67;;;;;;;-145.71;100.00;60690.53;4998575;28;20486;-82
2021/08/16 04:41:39;;;;;;;3.72;2.85;;;;;;;-145.71;100.00;60690.53;5020388;28;20412;-82
2021/08/16 04:44:04;;;;;;;4.93;2.85;;;;;;;-145.71;100.00;60690.53;5019910;28;20025;-82
2021/08/16 04:46:30;;;;;;;9.10;3.78;;;;;;;-145.71;100.00;60690.53;4999300;28;20369;-83
2021/08/16 04:48:55;;;;;;;6.57;3.13;;;;;;;-145.71;100.00;60690.53;5024657;28;20033;-82
2021/08/16 04:51:20;;;;;;;3.60;2.33;;;;;;;-145.71;100.00;60690.53;5014303;28;20021;-83
2021/08/16 04:53:46;;;;;;;7.35;3.65;;;;;;;-145.71;100.00;60690.53;5031130;28;20029;-82
2021/08/16 04:56:11;;;;;;;4.43;2.50;;;;;;;-145.71;100.00;60690.53;5020715;28;20026;-82
2021/08/16 04:58:36;;;;;;;6.47;3.30;;;;;;;-145.71;100.00;60690.53;5003873;28;20060;-82
2021/08/16 05:01:02;;;;;;;3.92;2.55;;;;;;;-145.71;100.00;60690.53;5011378;28;20026;-82
2021/08/16 05:03:27;;;;;;;7.50;2.45;;;;;;;-145.71;100.00;60690.53;5024233;28;20036;-82
2021/08/16 05:05:53;;;;;;;5.75;2.90;;;;;;;-145.71;100.00;60690.53;5017662;28;20028;-82
2021/08/16 05:08:18;;;;;;;5.70;3.50;;;;;;;-145.71;100.00;60690.53;5014131;28;20125;-83
2021/08/16 05:10:45;;;;;;;3.08;2.33;;;;;;;-145.71;100.00;60690.53;5016775;28;20112;-82
2021/08/16 05:13:11;;;;;;;4.95;2.45;;;;;;;-145.71;100.00;60690.53;5026131;28;20496;-82
2021/08/16 05:15:37;;;;;;;6.13;3.00;;;;;;;-145.71;100.00;60690.53;4996700;28;20029;-83
2021/08/16 05:18:03;;;;;;;6.10;2.25;;;;;;;-145.71;100.00;60690.53;5011491;28;20037;-83
2021/08/16 05:20:31;;;;;;;6.88;2.45;;;;;;;-145.71;100.00;60690.53;5014013;28;20021;-83
2021/08/16 05:22:56;;;;;;;3.83;2.35;;;;;;;-145.71;100.00;60690.53;5011073;28;20034;-82
2021/08/16 05:25:22;;;;;;;5.95;2.38;;;;;;;-145.71;100.00;60690.53;5013348;28;20148;-83
2021/08/16 05:27:48;;;;;;;5.70;2.70;;;;;;;-145.71;100.00;60690.53;4997137;28;20083;-83
2021/08/16 05:30:14;;;;;;;7.20;2.97;;;;;;;-145.71;100.00;60690.53;5013806;28;20560;-82
2021/08/16 05:32:40;;;;;;;3.67;2.70;;;;;;;-145.71;100.00;60690.53;5012481;28;20026;-82
2021/08/16 05:35:06;;;;;;;12.32;3.47;;;;;;;-145.71;100.00;60690.53;5011188;28;20033;-82
2021/08/16 05:37:32;;;;;;;5.75;2.80;;;;;;;-145.71;100.00;60690.53;4993333;28;20052;-83
2021/08/16 05:39:58;;;;;;;8.13;4.80;;;;;;;-145.71;100.00;60690.53;5011172;28;20108;-82
2021/08/16 05:42:23;;;;;;;4.60;2.40;;;;;;;-145.71;100.00;60690.53;5010543;28;20033;-82
2021/08/16 05:44:48;;;;;;;4.20;2.72;;;;;;;-145.71;100.00;60690.53;4995818;28;20553;-83
2021/08/16 05:47:13;;;;;;;6.20;2.67;;;;;;;-145.71;100.00;60690.53;5015361;28;20029;-82
2021/08/16 05:49:39;;;;;;;6.55;3.00;;;;;;;-145.71;100.00;60690.53;5013757;28;20393;-82
2021/08/16 05:52:04;;;;;;;5.65;3.22;;;;;;;-145.71;100.00;60690.53;5012889;28;20080;-82
2021/08/16 05:54:30;;;;;;;4.70;2.20;;;;;;;-145.71;100.00;60690.53;4993820;28;20037;-82
2021/08/16 05:56:55;;;;;;;7.38;3.10;;;;;;;-145.71;100.00;60690.53;5012470;28;20046;-82
2021/08/16 05:59:20;;;;;;;6.18;2.70;;;;;;;-145.71;100.00;60690.53;5011289;28;20030;-82
2021/08/16 06:01:46;;;;;;;8.52;2.58;;;;;;;-145.71;100.00;60690.53;4992866;28;20026;-82
2021/08/16 06:04:11;;;;;;;3.72;2.65;;;;;;;-145.71;100.00;60690.53;5010473;28;20492;-82
2021/08/16 06:06:37;;;;;;;4.88;2.83;;;;;;;-145.71;100.00;60690.53;5010659;28;20053;-82
2021/08/16 06:09:04;;;;;;;4.28;2.28;;;;;;;-145.71;100.00;60690.53;5012773;28;20040;-83
2021/08/16 06:11:29;;;;;;;5.18;2.60;;;;;;;-145.71;100.00;60690.53;5014854;28;20080;-82
2021/08/16 06:13:54;;;;;;;3.05;1.92;;;;;;;-145.71;100.00;60690.53;4995044;28;20030;-82
2021/08/16 06:16:20;;;;;;;4.57;2.00;;;;;;;-145.71;100.00;60690.53;5012563;28;20440;-82
2021/08/16 06:18:45;;;;;;;3.40;2.00;;;;;;;-145.71;100.00;60690.53;5011057;28;20624;-82
2021/08/16 06:21:11;;;;;;;7.35;2.70;;;;;;;-145.71;100.00;60690.53;5013006;28;20026;-82
2021/08/16 06:23:36;;;;;;;4.15;2.38;;;;;;;-145.71;100.00;60690.53;5013835;28;20073;-82
2021/08/16 06:26:03;;;;;;;5.78;2.15;;;;;;;-145.71;100.00;60690.53;5013753;28;20034;-82
2021/08/16 06:28:28;;;;;;;2.67;1.92;;;;;;;-145.71;100.00;60690.53;4996335;28;20801;-82
2021/08/16 06:30:53;;;;;;;4.72;2.60;;;;;;;-145.71;100.00;60690.53;5017873;28;20026;-83
2021/08/16 06:33:19;;;;;;;4.47;2.97;;;;;;;-145.71;100.00;60690.53;5016410;28;20064;-82
2021/08/16 06:35:44;;;;;;;4.30;2.80;;;;;;;-145.71;100.00;60690.53;5015802;28;20121;-82
2021/08/16 06:38:21;;;;;;;7.25;3.72;;;;;;;-145.71;100.00;60690.53;5014417;28;20061;-82
2021/08/16 06:40:47;;;;;;;3.72;2.88;;;;;;;-145.71;100.00;60690.53;5013884;28;20036;-82
2021/08/16 06:43:13;;;;;;;4.60;2.40;;;;;;;-145.71;100.00;60690.53;5013969;28;20087;-82
2021/08/16 06:45:38;;;;;;;4.28;2.70;;;;;;;-145.71;100.00;60690.53;4995955;28;20030;-82
2021/08/16 06:48:04;;;;;;;4.60;2.53;;;;;;;-145.71;100.00;60690.53;5013115;28;20034;-82
2021/08/16 06:50:29;;;;;;;5.47;3.15;;;;;;;-145.71;100.00;60690.53;5015542;28;20034;-83
2021/08/16 06:52:54;;;;;;;7.68;2.38;;;;;;;-145.71;100.00;60690.53;5017618;28;20030;-82
2021/08/16 06:55:20;;;;;;;5.80;2.60;;;;;;;-145.71;100.00;60690.53;5016073;28;20121;-82
2021/08/16 06:57:45;;;;;;;6.60;1.88;;;;;;;-145.71;100.00;60690.53;5013650;28;20026;-82
2021/08/16 07:00:11;;;;;;;6.70;2.95;;;;;;;-145.71;100.00;60690.53;5014653;28;20548;-82
2021/08/16 07:02:36;;;;;;;6.40;2.55;;;;;;;-145.71;100.00;60690.53;5013490;28;20041;-82
2021/08/16 07:05:04;;;;;;;4.47;1.95;;;;;;;-145.71;100.00;60690.53;5013485;28;20033;-82
2021/08/16 07:07:30;;;;;;;3.35;2.22;;;;;;;-145.71;100.00;60690.53;4995267;28;20570;-82
2021/08/16 07:09:55;;;;;;;3.13;2.53;;;;;;;-145.71;100.00;60690.53;4995635;28;20030;-82
2021/08/16 07:12:20;;;;;;;4.63;1.60;;;;;;;-145.71;100.00;60690.53;4997957;28;20095;-82
2021/08/16 07:14:46;;;;;;;3.58;2.05;;;;;;;-145.71;100.00;60690.53;4997746;28;20026;-83
2021/08/16 07:17:11;;;;;;;1.60;1.30;;;;;;;-145.71;100.00;60690.53;4996196;28;20037;-82
2021/08/16 07:19:37;;;;;;;2.08;1.40;;;;;;;-145.71;100.00;60690.53;5014095;28;20360;-83
2021/08/16 07:22:02;;;;;;;3.00;1.80;;;;;;;-145.71;100.00;60690.53;5013156;28;20037;-82
2021/08/16 07:24:27;;;;;;;5.47;1.40;;;;;;;-145.71;100.00;60690.53;4994934;28;20076;-82
2021/08/16 07:26:53;;;;;;;2.83;1.30;;;;;;;-145.71;100.00;60690.53;5013012;28;20105;-82
2021/08/16 07:29:18;;;;;;;3.00;1.40;;;;;;;-145.71;100.00;60690.53;5012692;28;20021;-82
2021/08/16 07:31:43;;;;;;;4.63;1.70;;;;;;;-145.71;100.00;60690.53;5015430;28;20026;-82
2021/08/16 07:34:09;;;;;;;5.38;1.90;;;;;;;-145.71;100.00;60690.53;5014444;28;20069;-83
2021/08/16 07:36:34;;;;;;;2.50;1.33;;;;;;;-145.71;100.00;60690.53;5016754;28;20030;-82
2021/08/16 07:38:59;;;;;;;5.70;1.33;;;;;;;-145.71;100.00;60690.53;4998112;28;20065;-83
2021/08/16 07:41:24;;;;;;;3.53;1.42;;;;;;;-145.71;100.00;60690.53;5015922;28;20021;-83
2021/08/16 07:43:50;;;;;;;1.70;1.25;;;;;;;-145.71;100.00;60690.53;5014344;28;20045;-82
2021/08/16 07:46:15;;;;;;;4.53;1.20;;;;;;;-145.71;100.00;60690.53;5013961;28;20491;-83
2021/08/16 07:48:41;;;;;;;5.50;1.20;;;;;;;-145.71;100.00;60690.53;4995463;28;20029;-82
2021/08/16 07:51:06;;;;;;;5.72;1.20;;;;;;;-145.71;100.00;60690.53;5012778;28;20049;-82
2021/08/16 07:53:31;;;;;;;2.67;1.17;;;;;;;-145.71;100.00;60690.53;5013104;28;20060;-82
2021/08/16 07:55:57;;;;;;;3.25;1.63;;;;;;;-145.71;100.00;60690.53;5017565;28;20088;-83
2021/08/16 07:58:22;;;;;;;3.45;1.45;;;;;;;-145.71;100.00;60690.53;5016931;28;20093;-83
2021/08/16 08:00:47;;;;;;;5.75;1.40;;;;;;;-145.71;100.00;60690.53;5015202;28;20101;-83
2021/08/16 08:03:13;;;;;;;3.25;1.23;;;;;;;-145.71;100.00;60690.53;5014531;28;20034;-82
2021/08/16 08:05:38;;;;;;;2.80;1.20;;;;;;;-145.71;100.00;60690.53;5013353;28;20025;-82
2021/08/16 08:08:04;;;;;;;2.97;1.60;;;;;;;-145.71;100.00;60690.53;4994752;28;20386;-82
2021/08/16 08:10:29;;;;;;;3.88;1.38;;;;;;;-145.71;100.00;60690.53;4994888;28;20117;-82
2021/08/16 08:12:54;;;;;;;2.17;1.50;;;;;;;-145.71;100.00;60690.53;5013463;28;20030;-82
2021/08/16 08:15:20;;;;;;;4.10;1.65;;;;;;;-145.71;100.00;60690.53;5016332;28;20784;-83
2021/08/16 08:17:46;;;;;;;1.95;1.40;;;;;;;-145.71;100.00;60690.53;5015868;28;20033;-82
2021/08/16 08:20:12;;;;;;;3.47;1.30;;;;;;;-145.71;100.00;60690.53;5015462;28;20478;-83
2021/08/16 08:22:37;;;;;;;3.22;1.50;;;;;;;-145.71;100.00;60690.53;5013668;28;20363;-83
2021/08/16 08:25:03;;;;;;;1.65;1.50;;;;;;;-145.71;100.00;60690.53;4995270;28;20501;-83
2021/08/16 08:27:29;;;;;;;2.58;1.30;;;;;;;-145.71;100.00;60690.53;5012752;28;20029;-83
2021/08/16 08:29:54;;;;;;;2.30;1.17;;;;;;;-145.71;100.00;60690.53;4993845;28;20040;-83
2021/08/16 08:32:19;;;;;;;6.05;1.58;;;;;;;-145.71;100.00;60690.53;5013921;28;20034;-82
2021/08/16 08:34:45;;;;;;;3.05;1.17;;;;;;;-145.71;100.00;60690.53;4995790;28;20485;-83
2021/08/16 08:37:13;;;;;;;3.38;1.40;;;;;;;-145.71;100.00;60690.53;4998715;28;20387;-83
2021/08/16 08:39:43;;;;;;;3.35;1.20;;;;;;;-145.71;100.00;60690.53;5015662;28;20122;-83
2021/08/16 08:42:11;;;;;;;3.40;1.52;;;;;;;-145.71;100.00;60690.53;5014446;28;20037;-83
2021/08/16 08:44:37;;;;;;;3.55;1.30;;;;;;;-145.71;100.00;60690.53;5012976;28;20474;-83
2021/08/16 08:47:03;;;;;;;4.82;1.10;;;;;;;-145.71;100.00;60690.53;5012801;28;20041;-83
2021/08/16 08:49:28;;;;;;;2.10;1.60;;;;;;;-145.71;100.00;60690.53;5013073;28;20482;-83
2021/08/16 08:51:54;;;;;;;1.70;1.38;;;;;;;-145.71;100.00;60690.53;5012375;28;20038;-82
2021/08/16 08:54:20;;;;;;;3.83;1.60;;;;;;;-145.71;100.00;60690.53;5011926;28;20026;-82
2021/08/16 08:56:47;;;;;;;2.40;1.27;;;;;;;-145.71;100.00;60690.53;5012006;28;20077;-83
2021/08/16 08:59:13;;;;;;;2.47;1.10;;;;;;;-145.71;100.00;60690.53;4998169;28;20022;-83
2021/08/16 09:01:59;;;;;;;2.63;1.38;;;;;;;-145.71;100.00;60690.53;4998141;28;20028;-82
2021/08/16 09:04:25;;;;;;;4.25;1.30;;;;;;;-145.71;100.00;60690.53;5013542;28;20030;-83
2021/08/16 09:06:50;;;;;;;3.63;1.27;;;;;;;-145.71;100.00;60690.53;4994963;28;20076;-83
2021/08/16 09:09:16;;;;;;;2.33;1.45;;;;;;;-145.71;100.00;60690.53;5011715;28;20160;-83
2021/08/16 09:11:53;;;;;;;2.97;1.33;;;;;;;-145.71;100.00;60690.53;5012495;28;20392;-82
2021/08/16 09:14:20;;;;;;;1.42;1.33;;;;;;;-145.71;100.00;60690.53;5011123;28;20474;-82
2021/08/16 09:16:46;;;;;;;1.90;1.20;;;;;;;-145.71;100.00;60690.53;5011503;28;20037;-82
2021/08/16 09:19:19;;;;;;;2.75;1.13;;;;;;;-145.71;100.00;60690.53;5012354;28;20547;-83
2021/08/16 09:22:10;;;;;;;2.15;1.52;;;;;;;-145.71;100.00;60690.53;4996929;28;20490;-83
2021/08/16 09:24:36;;;;;;;5.05;1.60;;;;;;;-145.71;100.00;60690.53;5014773;28;20430;-82
2021/08/16 09:27:04;;;;;;;1.67;1.33;;;;;;;-145.71;100.00;60690.53;4996140;28;20473;-83
2021/08/16 09:29:29;;;;;;;4.13;1.40;;;;;;;-145.71;100.00;60690.53;5012519;28;20156;-82
2021/08/16 09:32:04;;;;;;;2.80;1.30;;;;;;;-145.71;100.00;60690.53;4992642;28;20061;-82
2021/08/16 09:34:35;;;;;;;1.92;1.50;;;;;;;-145.71;100.00;60690.53;5010784;28;20253;-82
2021/08/16 09:37:02;;;;;;;3.50;1.77;;;;;;;-145.71;100.00;60690.53;5010255;28;20037;-82
2021/08/16 09:39:33;;;;;;;1.92;1.40;;;;;;;-145.71;100.00;60690.53;4992769;28;20026;-82
2021/08/16 09:42:03;;;;;;;2.83;1.60;;;;;;;-145.71;100.00;60690.53;5011386;28;20280;-82
2021/08/16 09:44:30;;;;;;;1.90;1.27;;;;;;;-145.71;100.00;60690.53;5014992;28;20461;-82
2021/08/16 09:47:01;;;;;;;1.52;1.17;;;;;;;-145.71;100.00;60690.53;5011765;28;20269;-82
2021/08/16 09:49:26;;;;;;;2.42;1.50;;;;;;;-145.71;100.00;60690.53;5010781;28;20026;-82
2021/08/16 09:52:02;;;;;;;1.67;1.42;;;;;;;-145.71;100.00;60690.53;5010103;28;20378;-82
2021/08/16 09:54:28;;;;;;;1.67;1.20;;;;;;;-145.71;100.00;60690.53;4992655;28;20552;-82
2021/08/16 09:56:55;;;;;;;2.03;1.45;;;;;;;-145.71;100.00;60690.53;5009968;28;20094;-82
2021/08/16 09:59:21;;;;;;;3.25;1.85;;;;;;;-145.71;100.00;60690.53;5010317;28;20030;-82
2021/08/16 10:01:46;;;;;;;3.03;1.63;;;;;;;-145.71;100.00;60690.53;5010489;28;20105;-83
2021/08/16 10:04:12;;;;;;;3.92;1.20;;;;;;;-145.71;100.00;60690.53;5014643;28;20064;-82
2021/08/16 10:06:37;;;;;;;1.50;1.10;;;;;;;-145.71;100.00;60690.53;5011005;28;20119;-82
2021/08/16 10:09:03;;;;;;;4.55;1.50;;;;;;;-145.71;100.00;60690.53;5010239;28;20061;-82
2021/08/16 10:11:29;;;;;;;3.58;1.00;;;;;;;-145.71;100.00;60690.53;4992752;28;20022;-83
2021/08/16 10:13:56;;;;;;;2.40;1.10;;;;;;;-145.71;100.00;60690.53;5010177;28;20054;-83
2021/08/16 10:16:32;;;;;;;2.80;1.08;;;;;;;-145.71;100.00;60690.53;4992233;28;20030;-82
2021/08/16 10:19:03;;;;;;;2.50;1.40;;;;;;;-145.71;100.00;60690.53;5009783;28;20444;-83
2021/08/16 10:21:29;;;;;;;;;;;;;;;-145.71;100.00;60690.53;5011089;28;20029;-83
2021/08/16 10:23:55;;;;;;;6.07;1.10;;;;;;;-145.71;100.00;60690.53;5012578;28;19921;-83
2021/08/16 10:26:25;;;;;;;1.80;1.38;;;;;;;-145.71;100.00;60690.53;4992390;28;20124;-82
2021/08/16 10:28:56;;;;;;;7.05;1.13;;;;;;;-145.71;100.00;60690.53;5010508;28;20030;-82
2021/08/16 10:31:27;;;;;;;3.38;1.83;;;;;;;-145.71;100.00;60690.53;4992177;28;20034;-83
2021/08/16 10:33:52;;;;;;;;;;;;;;;-145.71;100.00;60690.53;5011076;28;20034;-82
2021/08/16 10:36:23;;;;;;;3.15;1.30;;;;;;;-145.71;100.00;60690.53;4992557;28;19920;-83
2021/08/16 10:38:53;;;;;;;37.78;2.80;;;;;;;-145.71;100.00;60690.53;5010022;28;20026;-82
2021/08/16 10:41:39;;;;;;;22.70;3.00;;;;;;;-145.71;100.00;60690.53;5011329;28;20040;-82
2021/08/16 10:44:18;;;;;;;8.75;3.53;;;;;;;-145.71;100.00;60690.53;5014256;28;20132;-82
2021/08/16 10:46:57;;;;;;;11.68;3.55;;;;;;;-145.71;100.00;60690.53;5012670;28;20034;-82
2021/08/16 10:49:31;;;;;;;9.15;3.53;;;;;;;-145.71;100.00;60690.53;4994235;28;20026;-82
2021/08/16 10:51:56;;;;;;;6.32;3.03;;;;;;;-145.71;100.00;60690.53;5010802;28;20053;-82
2021/08/16 10:54:22;;;;;;;10.73;4.00;;;;;;;-145.71;100.00;60690.53;5009967;28;20143;-82
2021/08/16 10:56:50;;;;;;;6.70;3.55;;;;;;;-145.71;100.00;60690.53;5009954;28;20474;-82
2021/08/16 10:59:16;;;;;;;8.23;3.53;;;;;;;-145.71;100.00;60690.53;4991257;28;20172;-82
2021/08/16 11:01:44;;;;;;;9.30;3.85;;;;;;;-145.71;100.00;60690.53;5009174;28;20076;-82
2021/08/16 11:04:15;;;;;;;9.90;3.88;;;;;;;-145.71;100.00;60690.53;4992470;28;20116;-82
2021/08/16 11:06:51;;;;;;;;;;;;;;;-145.71;100.00;60690.53;5015676;28;20030;-82